sensor_id;sensor_type;location;lat;lon;timestamp;pressure;altitude;pressure_sealevel;temperature;humidity
77161;BME280;66135;0.000;0.000;2023-05-20T00:02:00;102240.78;;;18.83;61.23
77161;BME280;66135;0.000;0.000;2023-05-20T00:04:26;102235.34;;;18.83;61.28
77161;BME280;66135;0.000;0.000;2023-05-20T00:06:51;102240.78;;;18.83;61.40
77161;BME280;66135;0.000;0.000;2023-05-20T00:09:17;102246.34;;;18.82;61.25
77161;BME280;66135;0.000;0.000;2023-05-20T00:11:42;102245.34;;;18.83;61.17
77161;BME280;66135;0.000;0.000;2023-05-20T00:14:08;102244.50;;;18.82;61.42
77161;BME280;66135;0.000;0.000;2023-05-20T00:16:33;102239.22;;;18.81;61.29
77161;BME280;66135;0.000;0.000;2023-05-20T00:18:59;102239.22;;;18.81;61.29
77161;BME280;66135;0.000;0.000;2023-05-20T00:21:24;102243.63;;;18.82;61.27
77161;BME280;66135;0.000;0.000;2023-05-20T00:23:50;102240.22;;;18.80;61.37
77161;BME280;66135;0.000;0.000;2023-05-20T00:26:15;102241.94;;;18.81;61.44
77161;BME280;66135;0.000;0.000;2023-05-20T00:28:41;102241.06;;;18.80;61.25
77161;BME280;66135;0.000;0.000;2023-05-20T00:31:06;102232.94;;;18.80;61.44
77161;BME280;66135;0.000;0.000;2023-05-20T00:33:32;102232.06;;;18.80;61.39
77161;BME280;66135;0.000;0.000;2023-05-20T00:35:57;102230.38;;;18.79;61.28
77161;BME280;66135;0.000;0.000;2023-05-20T00:38:23;102233.09;;;18.79;61.17
77161;BME280;66135;0.000;0.000;2023-05-20T00:40:48;102237.66;;;18.78;61.24
77161;BME280;66135;0.000;0.000;2023-05-20T00:43:13;102244.78;;;18.79;61.36
77161;BME280;66135;0.000;0.000;2023-05-20T00:45:39;102229.50;;;18.78;61.13
77161;BME280;66135;0.000;0.000;2023-05-20T00:48:05;102233.22;;;18.77;61.25
77161;BME280;66135;0.000;0.000;2023-05-20T00:50:31;102237.66;;;18.78;61.33
77161;BME280;66135;0.000;0.000;2023-05-20T00:52:56;102240.50;;;18.77;61.08
77161;BME280;66135;0.000;0.000;2023-05-20T00:55:24;102239.66;;;18.76;61.45
77161;BME280;66135;0.000;0.000;2023-05-20T00:57:50;102227.09;;;18.75;61.06
77161;BME280;66135;0.000;0.000;2023-05-20T01:00:16;102230.78;;;18.74;61.29
77161;BME280;66135;0.000;0.000;2023-05-20T01:02:41;102233.34;;;18.76;61.12
77161;BME280;66135;0.000;0.000;2023-05-20T01:05:07;102235.22;;;18.75;61.17
77161;BME280;66135;0.000;0.000;2023-05-20T01:07:33;102226.22;;;18.75;61.38
77161;BME280;66135;0.000;0.000;2023-05-20T01:09:59;102229.09;;;18.73;61.37
77161;BME280;66135;0.000;0.000;2023-05-20T01:12:30;102224.53;;;18.74;61.22
77161;BME280;66135;0.000;0.000;2023-05-20T01:15:12;102218.94;;;18.75;61.25
77161;BME280;66135;0.000;0.000;2023-05-20T01:17:42;102222.63;;;18.74;61.50
77161;BME280;66135;0.000;0.000;2023-05-20T01:20:13;102212.78;;;18.73;61.16
77161;BME280;66135;0.000;0.000;2023-05-20T01:22:55;102228.06;;;18.74;61.17
77161;BME280;66135;0.000;0.000;2023-05-20T01:25:21;102221.81;;;18.74;61.29
77161;BME280;66135;0.000;0.000;2023-05-20T01:27:47;102223.66;;;18.73;61.49
77161;BME280;66135;0.000;0.000;2023-05-20T01:30:13;102223.66;;;18.73;61.33
77161;BME280;66135;0.000;0.000;2023-05-20T01:32:48;102226.53;;;18.72;61.29
77161;BME280;66135;0.000;0.000;2023-05-20T01:35:15;102226.53;;;18.72;61.40
77161;BME280;66135;0.000;0.000;2023-05-20T01:37:42;102217.50;;;18.71;61.30
77161;BME280;66135;0.000;0.000;2023-05-20T01:40:13;102216.66;;;18.71;61.31
77161;BME280;66135;0.000;0.000;2023-05-20T01:42:41;102218.53;;;18.70;61.29
77161;BME280;66135;0.000;0.000;2023-05-20T01:45:07;102209.50;;;18.70;61.35
77161;BME280;66135;0.000;0.000;2023-05-20T01:47:32;102213.09;;;18.70;61.39
77161;BME280;66135;0.000;0.000;2023-05-20T01:49:58;102205.94;;;18.69;61.31
77161;BME280;66135;0.000;0.000;2023-05-20T01:52:23;102210.38;;;18.70;61.21
77161;BME280;66135;0.000;0.000;2023-05-20T01:54:49;102206.81;;;18.70;61.21
77161;BME280;66135;0.000;0.000;2023-05-20T01:57:18;102210.53;;;18.69;61.37
77161;BME280;66135;0.000;0.000;2023-05-20T01:59:44;102210.53;;;18.69;61.10
77161;BME280;66135;0.000;0.000;2023-05-20T02:02:09;102212.38;;;18.68;60.90
77161;BME280;66135;0.000;0.000;2023-05-20T02:04:34;102210.53;;;18.69;61.17
77161;BME280;66135;0.000;0.000;2023-05-20T02:07:00;102206.94;;;18.68;61.15
77161;BME280;66135;0.000;0.000;2023-05-20T02:09:25;102201.53;;;18.68;60.99
77161;BME280;66135;0.000;0.000;2023-05-20T02:11:51;102202.50;;;18.67;61.21
77161;BME280;66135;0.000;0.000;2023-05-20T02:14:16;102197.06;;;18.67;61.03
77161;BME280;66135;0.000;0.000;2023-05-20T02:16:42;102203.53;;;18.66;60.94
77161;BME280;66135;0.000;0.000;2023-05-20T02:19:07;102205.22;;;18.67;61.04
77161;BME280;66135;0.000;0.000;2023-05-20T02:21:38;102203.53;;;18.66;61.24
77161;BME280;66135;0.000;0.000;2023-05-20T02:24:04;102199.09;;;18.65;61.13
77161;BME280;66135;0.000;0.000;2023-05-20T02:26:29;102200.81;;;18.66;61.11
77161;BME280;66135;0.000;0.000;2023-05-20T02:28:55;102188.25;;;18.65;61.01
77161;BME280;66135;0.000;0.000;2023-05-20T02:31:20;102195.53;;;18.65;61.04
77161;BME280;66135;0.000;0.000;2023-05-20T02:33:46;102200.97;;;18.65;61.13
77161;BME280;66135;0.000;0.000;2023-05-20T02:36:11;102198.25;;;18.65;61.15
77161;BME280;66135;0.000;0.000;2023-05-20T02:38:37;102192.81;;;18.65;60.88
77161;BME280;66135;0.000;0.000;2023-05-20T02:41:02;102195.69;;;18.63;61.20
77161;BME280;66135;0.000;0.000;2023-05-20T02:43:29;102200.25;;;18.63;61.11
77161;BME280;66135;0.000;0.000;2023-05-20T02:45:55;102201.94;;;18.64;61.19
77161;BME280;66135;0.000;0.000;2023-05-20T02:48:21;102198.41;;;18.63;61.20
77161;BME280;66135;0.000;0.000;2023-05-20T02:50:46;102194.81;;;18.63;61.07
77161;BME280;66135;0.000;0.000;2023-05-20T02:53:12;102197.53;;;18.63;61.17
77161;BME280;66135;0.000;0.000;2023-05-20T02:55:39;102190.41;;;18.62;61.14
77161;BME280;66135;0.000;0.000;2023-05-20T02:58:05;102191.22;;;18.62;61.20
77161;BME280;66135;0.000;0.000;2023-05-20T03:00:30;102184.97;;;18.62;61.01
77161;BME280;66135;0.000;0.000;2023-05-20T03:02:56;102186.81;;;18.61;61.10
77161;BME280;66135;0.000;0.000;2023-05-20T03:05:21;102193.13;;;18.62;60.97
77161;BME280;66135;0.000;0.000;2023-05-20T03:07:47;102188.66;;;18.61;61.01
77161;BME280;66135;0.000;0.000;2023-05-20T03:10:13;102189.53;;;18.61;61.17
77161;BME280;66135;0.000;0.000;2023-05-20T03:12:39;102186.97;;;18.60;60.96
77161;BME280;66135;0.000;0.000;2023-05-20T03:15:05;102185.09;;;18.60;61.25
77161;BME280;66135;0.000;0.000;2023-05-20T03:17:30;102182.38;;;18.60;61.36
77161;BME280;66135;0.000;0.000;2023-05-20T03:19:56;102186.09;;;18.59;61.10
77161;BME280;66135;0.000;0.000;2023-05-20T03:22:21;102186.97;;;18.60;61.07
77161;BME280;66135;0.000;0.000;2023-05-20T03:24:46;102188.81;;;18.59;60.98
77161;BME280;66135;0.000;0.000;2023-05-20T03:27:12;102188.81;;;18.59;61.10
77161;BME280;66135;0.000;0.000;2023-05-20T03:29:38;102179.81;;;18.59;61.22
77161;BME280;66135;0.000;0.000;2023-05-20T03:32:03;102180.81;;;18.58;61.03
77161;BME280;66135;0.000;0.000;2023-05-20T03:34:29;102180.81;;;18.58;61.29
77161;BME280;66135;0.000;0.000;2023-05-20T03:36:54;102177.09;;;18.59;60.97
77161;BME280;66135;0.000;0.000;2023-05-20T03:39:21;102185.38;;;18.57;61.07
77161;BME280;66135;0.000;0.000;2023-05-20T03:41:46;102178.97;;;18.58;60.94
77161;BME280;66135;0.000;0.000;2023-05-20T03:44:12;102187.25;;;18.57;61.22
77161;BME280;66135;0.000;0.000;2023-05-20T03:46:37;102179.09;;;18.57;60.91
77161;BME280;66135;0.000;0.000;2023-05-20T03:49:03;102178.25;;;18.56;60.74
77161;BME280;66135;0.000;0.000;2023-05-20T03:51:29;102186.41;;;18.56;61.14
77161;BME280;66135;0.000;0.000;2023-05-20T03:53:55;102179.09;;;18.57;61.02
77161;BME280;66135;0.000;0.000;2023-05-20T03:56:20;102182.81;;;18.56;60.97
77161;BME280;66135;0.000;0.000;2023-05-20T03:58:46;102178.25;;;18.56;61.02
77161;BME280;66135;0.000;0.000;2023-05-20T04:01:12;102177.25;;;18.57;61.05
77161;BME280;66135;0.000;0.000;2023-05-20T04:03:38;102177.41;;;18.56;60.76
77161;BME280;66135;0.000;0.000;2023-05-20T04:06:06;102179.25;;;18.55;61.14
77161;BME280;66135;0.000;0.000;2023-05-20T04:08:31;102181.13;;;18.55;61.14
77161;BME280;66135;0.000;0.000;2023-05-20T04:10:58;102182.97;;;18.54;61.02
77161;BME280;66135;0.000;0.000;2023-05-20T04:13:26;102180.25;;;18.54;61.12
77161;BME280;66135;0.000;0.000;2023-05-20T04:15:52;102189.38;;;18.53;61.00
77161;BME280;66135;0.000;0.000;2023-05-20T04:18:20;102185.69;;;18.54;61.05
77161;BME280;66135;0.000;0.000;2023-05-20T04:20:46;102184.81;;;18.54;61.03
77161;BME280;66135;0.000;0.000;2023-05-20T04:23:11;102196.53;;;18.54;61.17
77161;BME280;66135;0.000;0.000;2023-05-20T04:25:37;102197.53;;;18.53;61.02
77161;BME280;66135;0.000;0.000;2023-05-20T04:28:03;102185.84;;;18.53;60.90
77161;BME280;66135;0.000;0.000;2023-05-20T04:30:29;102191.25;;;18.53;60.98
77161;BME280;66135;0.000;0.000;2023-05-20T04:32:57;102186.81;;;18.52;60.88
77161;BME280;66135;0.000;0.000;2023-05-20T04:35:23;102180.56;;;18.51;60.81
77161;BME280;66135;0.000;0.000;2023-05-20T04:37:50;102182.25;;;18.52;61.20
77161;BME280;66135;0.000;0.000;2023-05-20T04:40:18;102186.00;;;18.51;60.99
77161;BME280;66135;0.000;0.000;2023-05-20T04:42:45;102176.84;;;18.52;61.13
77161;BME280;66135;0.000;0.000;2023-05-20T04:45:11;102183.28;;;18.51;61.02
77161;BME280;66135;0.000;0.000;2023-05-20T04:47:37;102186.97;;;18.50;60.93
77161;BME280;66135;0.000;0.000;2023-05-20T04:50:04;102189.38;;;18.53;60.97
77161;BME280;66135;0.000;0.000;2023-05-20T04:52:30;102189.38;;;18.53;60.15
77161;BME280;66135;0.000;0.000;2023-05-20T04:54:55;102193.13;;;18.52;60.49
77161;BME280;66135;0.000;0.000;2023-05-20T04:57:22;102192.25;;;18.52;60.32
77161;BME280;66135;0.000;0.000;2023-05-20T04:59:47;102180.41;;;18.53;60.31
77161;BME280;66135;0.000;0.000;2023-05-20T05:02:13;102181.25;;;18.53;60.32
77161;BME280;66135;0.000;0.000;2023-05-20T05:04:39;102184.97;;;18.52;60.33
77161;BME280;66135;0.000;0.000;2023-05-20T05:07:04;102183.84;;;18.55;60.61
77161;BME280;66135;0.000;0.000;2023-05-20T05:09:30;102161.25;;;18.54;60.74
77161;BME280;66135;0.000;0.000;2023-05-20T05:11:55;102178.41;;;18.55;61.10
77161;BME280;66135;0.000;0.000;2023-05-20T05:14:21;102163.97;;;18.54;61.02
77161;BME280;66135;0.000;0.000;2023-05-20T05:16:48;102169.41;;;18.54;61.15
77161;BME280;66135;0.000;0.000;2023-05-20T05:19:13;102163.13;;;18.54;60.95
77161;BME280;66135;0.000;0.000;2023-05-20T05:21:38;102163.97;;;18.54;61.15
77161;BME280;66135;0.000;0.000;2023-05-20T05:24:04;102169.41;;;18.54;61.17
77161;BME280;66135;0.000;0.000;2023-05-20T05:26:29;102163.97;;;18.54;61.42
77161;BME280;66135;0.000;0.000;2023-05-20T05:28:55;102162.97;;;18.55;61.38
77161;BME280;66135;0.000;0.000;2023-05-20T05:31:20;102158.56;;;18.54;61.40
77161;BME280;66135;0.000;0.000;2023-05-20T05:33:46;102158.56;;;18.54;61.60
77161;BME280;66135;0.000;0.000;2023-05-20T05:36:12;102163.97;;;18.54;61.52
77161;BME280;66135;0.000;0.000;2023-05-20T05:38:37;102162.13;;;18.55;61.37
77161;BME280;66135;0.000;0.000;2023-05-20T05:41:03;102155.69;;;18.56;61.65
77161;BME280;66135;0.000;0.000;2023-05-20T05:43:28;102163.13;;;18.54;61.56
77161;BME280;66135;0.000;0.000;2023-05-20T05:45:53;102163.81;;;18.56;61.77
77161;BME280;66135;0.000;0.000;2023-05-20T05:48:20;102163.97;;;18.54;61.50
77161;BME280;66135;0.000;0.000;2023-05-20T05:50:46;102167.56;;;18.55;61.67
77161;BME280;66135;0.000;0.000;2023-05-20T05:53:11;102160.41;;;18.54;61.59
77161;BME280;66135;0.000;0.000;2023-05-20T05:55:37;102170.38;;;18.53;61.48
77161;BME280;66135;0.000;0.000;2023-05-20T05:58:02;102167.69;;;18.53;61.57
77161;BME280;66135;0.000;0.000;2023-05-20T06:00:28;102170.38;;;18.53;61.71
77161;BME280;66135;0.000;0.000;2023-05-20T06:02:53;102171.25;;;18.54;61.56
77161;BME280;66135;0.000;0.000;2023-05-20T06:05:18;102167.41;;;18.56;61.91
77161;BME280;66135;0.000;0.000;2023-05-20T06:07:44;102164.53;;;18.58;61.73
77161;BME280;66135;0.000;0.000;2023-05-20T06:10:09;102167.41;;;18.56;61.85
77161;BME280;66135;0.000;0.000;2023-05-20T06:12:35;102167.41;;;18.56;62.07
77161;BME280;66135;0.000;0.000;2023-05-20T06:15:00;102156.56;;;18.56;62.00
77161;BME280;66135;0.000;0.000;2023-05-20T06:17:26;102157.53;;;18.55;62.06
77161;BME280;66135;0.000;0.000;2023-05-20T06:19:51;102156.56;;;18.56;62.16
77161;BME280;66135;0.000;0.000;2023-05-20T06:22:16;102145.53;;;18.58;62.02
77161;BME280;66135;0.000;0.000;2023-05-20T06:24:42;102145.41;;;18.59;62.10
77161;BME280;66135;0.000;0.000;2023-05-20T06:27:07;102140.97;;;18.58;62.01
77161;BME280;66135;0.000;0.000;2023-05-20T06:29:33;102136.53;;;18.57;62.39
77161;BME280;66135;0.000;0.000;2023-05-20T06:31:58;102141.09;;;18.57;62.25
77161;BME280;66135;0.000;0.000;2023-05-20T06:34:24;102142.13;;;18.56;62.30
77161;BME280;66135;0.000;0.000;2023-05-20T06:36:49;102136.84;;;18.54;62.14
77161;BME280;66135;0.000;0.000;2023-05-20T06:39:14;102137.00;;;18.53;62.15
77161;BME280;66135;0.000;0.000;2023-05-20T06:41:40;102140.53;;;18.53;62.05
77161;BME280;66135;0.000;0.000;2023-05-20T06:44:06;102140.41;;;18.55;62.13
77161;BME280;66135;0.000;0.000;2023-05-20T06:46:32;102132.28;;;18.55;62.22
77161;BME280;66135;0.000;0.000;2023-05-20T06:48:57;102121.44;;;18.55;61.99
77161;BME280;66135;0.000;0.000;2023-05-20T06:51:22;102127.69;;;18.55;61.73
77161;BME280;66135;0.000;0.000;2023-05-20T06:53:48;102134.13;;;18.54;61.36
77161;BME280;66135;0.000;0.000;2023-05-20T06:56:13;102132.53;;;18.52;61.51
77161;BME280;66135;0.000;0.000;2023-05-20T06:58:39;102123.44;;;18.53;60.85
77161;BME280;66135;0.000;0.000;2023-05-20T07:01:05;102125.28;;;18.52;60.94
77161;BME280;66135;0.000;0.000;2023-05-20T07:03:30;102121.69;;;18.52;60.81
77161;BME280;66135;0.000;0.000;2023-05-20T07:05:55;102129.84;;;18.52;60.57
77161;BME280;66135;0.000;0.000;2023-05-20T07:08:21;102125.13;;;18.54;60.33
77161;BME280;66135;0.000;0.000;2023-05-20T07:10:46;102127.13;;;18.52;60.42
77161;BME280;66135;0.000;0.000;2023-05-20T07:13:12;102123.44;;;18.53;60.57
77161;BME280;66135;0.000;0.000;2023-05-20T07:15:37;102122.56;;;18.52;60.12
77161;BME280;66135;0.000;0.000;2023-05-20T07:18:03;102120.00;;;18.51;60.15
77161;BME280;66135;0.000;0.000;2023-05-20T07:20:28;102113.69;;;18.50;60.11
77161;BME280;66135;0.000;0.000;2023-05-20T07:22:53;102115.56;;;18.50;60.02
77161;BME280;66135;0.000;0.000;2023-05-20T07:25:19;102118.41;;;18.48;59.66
77161;BME280;66135;0.000;0.000;2023-05-20T07:27:44;102113.84;;;18.49;59.82
77161;BME280;66135;0.000;0.000;2023-05-20T07:30:10;102115.56;;;18.50;60.13
77161;BME280;66135;0.000;0.000;2023-05-20T07:32:35;102111.00;;;18.50;59.83
77161;BME280;66135;0.000;0.000;2023-05-20T07:35:01;102102.84;;;18.50;59.81
77161;BME280;66135;0.000;0.000;2023-05-20T07:37:26;102106.28;;;18.52;60.00
77161;BME280;66135;0.000;0.000;2023-05-20T07:39:52;102102.69;;;18.52;59.94
77161;BME280;66135;0.000;0.000;2023-05-20T07:42:17;102100.69;;;18.54;59.87
77161;BME280;66135;0.000;0.000;2023-05-20T07:44:42;102096.44;;;18.51;59.93
77161;BME280;66135;0.000;0.000;2023-05-20T07:47:08;102092.56;;;18.54;59.91
77161;BME280;66135;0.000;0.000;2023-05-20T07:49:34;102087.13;;;18.54;59.71
77161;BME280;66135;0.000;0.000;2023-05-20T07:51:59;102094.56;;;18.52;59.64
77161;BME280;66135;0.000;0.000;2023-05-20T07:54:25;102084.56;;;18.52;59.60
77161;BME280;66135;0.000;0.000;2023-05-20T07:56:51;102088.97;;;18.53;59.72
77161;BME280;66135;0.000;0.000;2023-05-20T07:59:17;102088.00;;;18.54;59.86
77161;BME280;66135;0.000;0.000;2023-05-20T08:01:42;102086.16;;;18.55;59.64
77161;BME280;66135;0.000;0.000;2023-05-20T08:04:08;102084.25;;;18.55;59.46
77161;BME280;66135;0.000;0.000;2023-05-20T08:06:33;102085.28;;;18.54;59.47
77161;BME280;66135;0.000;0.000;2023-05-20T08:09:00;102080.72;;;18.55;59.55
77161;BME280;66135;0.000;0.000;2023-05-20T08:11:26;102089.69;;;18.55;59.77
77161;BME280;66135;0.000;0.000;2023-05-20T08:13:51;102084.09;;;18.57;59.36
77161;BME280;66135;0.000;0.000;2023-05-20T08:16:17;102078.84;;;18.55;59.10
77161;BME280;66135;0.000;0.000;2023-05-20T08:18:42;102074.28;;;18.56;59.40
77161;BME280;66135;0.000;0.000;2023-05-20T08:21:08;102074.28;;;18.56;58.96
77161;BME280;66135;0.000;0.000;2023-05-20T08:23:34;102078.56;;;18.58;59.23
77161;BME280;66135;0.000;0.000;2023-05-20T08:26:00;102065.66;;;18.60;59.16
77161;BME280;66135;0.000;0.000;2023-05-20T08:28:30;102067.41;;;18.61;58.95
77161;BME280;66135;0.000;0.000;2023-05-20T08:30:55;102069.25;;;18.61;59.03
77161;BME280;66135;0.000;0.000;2023-05-20T08:33:22;102061.97;;;18.61;59.20
77161;BME280;66135;0.000;0.000;2023-05-20T08:35:47;102053.84;;;18.61;59.05
77161;BME280;66135;0.000;0.000;2023-05-20T08:38:13;102061.81;;;18.63;58.70
77161;BME280;66135;0.000;0.000;2023-05-20T08:40:39;102073.53;;;18.63;58.56
77161;BME280;66135;0.000;0.000;2023-05-20T08:43:05;102071.66;;;18.64;59.30
77161;BME280;66135;0.000;0.000;2023-05-20T08:45:33;102057.81;;;18.67;58.15
77161;BME280;66135;0.000;0.000;2023-05-20T08:47:59;102049.53;;;18.68;59.07
77161;BME280;66135;0.000;0.000;2023-05-20T08:50:25;102056.66;;;18.69;58.57
77161;BME280;66135;0.000;0.000;2023-05-20T08:52:51;102046.66;;;18.70;58.62
77161;BME280;66135;0.000;0.000;2023-05-20T08:55:24;102052.06;;;18.70;58.38
77161;BME280;66135;0.000;0.000;2023-05-20T08:57:52;102053.78;;;18.71;58.64
77161;BME280;66135;0.000;0.000;2023-05-20T09:00:20;102051.94;;;18.71;58.47
77161;BME280;66135;0.000;0.000;2023-05-20T09:02:47;102053.78;;;18.71;58.72
77161;BME280;66135;0.000;0.000;2023-05-20T09:05:13;102044.09;;;18.68;58.73
77161;BME280;66135;0.000;0.000;2023-05-20T09:07:39;102052.38;;;18.67;58.87
77161;BME280;66135;0.000;0.000;2023-05-20T09:10:07;102041.53;;;18.67;58.69
77161;BME280;66135;0.000;0.000;2023-05-20T09:12:32;102045.06;;;18.67;58.70
77161;BME280;66135;0.000;0.000;2023-05-20T09:14:58;102036.94;;;18.67;58.10
77161;BME280;66135;0.000;0.000;2023-05-20T09:17:23;102038.81;;;18.67;58.28
77161;BME280;66135;0.000;0.000;2023-05-20T09:19:49;102027.97;;;18.67;58.25
77161;BME280;66135;0.000;0.000;2023-05-20T09:22:27;102033.22;;;18.68;57.48
77161;BME280;66135;0.000;0.000;2023-05-20T09:24:53;102039.53;;;18.69;56.78
77161;BME280;66135;0.000;0.000;2023-05-20T09:27:19;102039.38;;;18.70;57.05
77161;BME280;66135;0.000;0.000;2023-05-20T09:29:49;102032.22;;;18.69;56.74
77161;BME280;66135;0.000;0.000;2023-05-20T09:32:15;102031.22;;;18.70;56.68
77161;BME280;66135;0.000;0.000;2023-05-20T09:34:40;102040.19;;;18.71;56.27
77161;BME280;66135;0.000;0.000;2023-05-20T09:37:07;102032.94;;;18.71;56.10
77161;BME280;66135;0.000;0.000;2023-05-20T09:39:35;102031.94;;;18.72;56.17
77161;BME280;66135;0.000;0.000;2023-05-20T09:42:08;102036.34;;;18.73;56.27
77161;BME280;66135;0.000;0.000;2023-05-20T09:44:37;102033.63;;;18.73;57.13
77161;BME280;66135;0.000;0.000;2023-05-20T09:47:04;102029.91;;;18.74;57.89
77161;BME280;66135;0.000;0.000;2023-05-20T09:49:32;102039.94;;;18.74;56.89
77161;BME280;66135;0.000;0.000;2023-05-20T09:52:01;102034.50;;;18.74;56.77
77161;BME280;66135;0.000;0.000;2023-05-20T09:54:27;102025.50;;;18.73;58.18
77161;BME280;66135;0.000;0.000;2023-05-20T09:56:53;102019.91;;;18.75;57.23
77161;BME280;66135;0.000;0.000;2023-05-20T09:59:20;102022.47;;;18.76;56.99
77161;BME280;66135;0.000;0.000;2023-05-20T10:01:46;102017.75;;;18.78;57.67
77161;BME280;66135;0.000;0.000;2023-05-20T10:04:12;102011.28;;;18.79;57.65
77161;BME280;66135;0.000;0.000;2023-05-20T10:09:31;102008.47;;;18.81;57.65
77161;BME280;66135;0.000;0.000;2023-05-20T10:14:55;101998.28;;;18.83;57.20
77161;BME280;66135;0.000;0.000;2023-05-20T10:20:17;101986.13;;;18.87;56.83
77161;BME280;66135;0.000;0.000;2023-05-20T10:22:54;101985.13;;;18.88;56.76
77161;BME280;66135;0.000;0.000;2023-05-20T10:25:25;101994.81;;;18.90;56.18
77161;BME280;66135;0.000;0.000;2023-05-20T10:27:51;101987.69;;;18.89;56.10
77161;BME280;66135;0.000;0.000;2023-05-20T10:30:17;101972.94;;;18.92;55.86
77161;BME280;66135;0.000;0.000;2023-05-20T10:32:54;101990.09;;;18.92;57.08
77161;BME280;66135;0.000;0.000;2023-05-20T10:35:23;101973.78;;;18.92;57.58
77161;BME280;66135;0.000;0.000;2023-05-20T10:37:53;101968.22;;;18.94;57.76
77161;BME280;66135;0.000;0.000;2023-05-20T10:40:20;101969.06;;;18.94;57.92
77161;BME280;66135;0.000;0.000;2023-05-20T10:42:47;101961.78;;;18.95;58.16
77161;BME280;66135;0.000;0.000;2023-05-20T10:45:33;101966.03;;;18.97;58.45
77161;BME280;66135;0.000;0.000;2023-05-20T10:48:01;101966.03;;;18.97;58.76
77161;BME280;66135;0.000;0.000;2023-05-20T10:50:34;101974.03;;;18.99;58.89
77161;BME280;66135;0.000;0.000;2023-05-20T10:53:05;101964.03;;;18.99;59.06
77161;BME280;66135;0.000;0.000;2023-05-20T10:55:38;101953.16;;;18.99;59.00
77161;BME280;66135;0.000;0.000;2023-05-20T10:58:04;101961.63;;;18.96;59.27
77161;BME280;66135;0.000;0.000;2023-05-20T11:00:30;101961.78;;;18.95;59.24
77161;BME280;66135;0.000;0.000;2023-05-20T11:02:56;101951.75;;;18.95;59.55
77161;BME280;66135;0.000;0.000;2023-05-20T11:05:21;101952.31;;;18.99;59.36
77161;BME280;66135;0.000;0.000;2023-05-20T11:07:47;101953.00;;;19.01;59.62
77161;BME280;66135;0.000;0.000;2023-05-20T11:10:12;101955.72;;;19.01;59.78
77161;BME280;66135;0.000;0.000;2023-05-20T11:12:38;101947.75;;;18.99;59.80
77161;BME280;66135;0.000;0.000;2023-05-20T11:15:04;101950.28;;;19.01;59.75
77161;BME280;66135;0.000;0.000;2023-05-20T11:17:30;101955.56;;;19.02;60.07
77161;BME280;66135;0.000;0.000;2023-05-20T11:19:55;101945.41;;;19.04;60.18
77161;BME280;66135;0.000;0.000;2023-05-20T11:22:21;101934.56;;;19.04;60.05
77161;BME280;66135;0.000;0.000;2023-05-20T11:24:46;101940.69;;;19.06;60.10
77161;BME280;66135;0.000;0.000;2023-05-20T11:27:12;101940.53;;;19.08;60.33
77161;BME280;66135;0.000;0.000;2023-05-20T11:29:38;101931.34;;;19.09;60.30
77161;BME280;66135;0.000;0.000;2023-05-20T11:32:06;101942.22;;;19.09;60.47
77161;BME280;66135;0.000;0.000;2023-05-20T11:34:35;101934.94;;;19.09;60.52
77161;BME280;66135;0.000;0.000;2023-05-20T11:37:01;101930.22;;;19.12;60.38
77161;BME280;66135;0.000;0.000;2023-05-20T11:39:29;101925.78;;;19.11;60.58
77161;BME280;66135;0.000;0.000;2023-05-20T11:41:56;101939.38;;;19.11;60.69
77161;BME280;66135;0.000;0.000;2023-05-20T11:44:21;101939.50;;;19.09;60.64
77161;BME280;66135;0.000;0.000;2023-05-20T11:46:47;101932.22;;;19.09;60.94
77161;BME280;66135;0.000;0.000;2023-05-20T11:49:13;101920.50;;;19.09;60.63
77161;BME280;66135;0.000;0.000;2023-05-20T11:51:39;101929.66;;;19.08;61.00
77161;BME280;66135;0.000;0.000;2023-05-20T11:54:06;101930.53;;;19.08;60.96
77161;BME280;66135;0.000;0.000;2023-05-20T11:56:36;101919.66;;;19.08;61.06
77161;BME280;66135;0.000;0.000;2023-05-20T11:59:03;101917.66;;;19.11;60.96
77161;BME280;66135;0.000;0.000;2023-05-20T12:01:33;101903.91;;;19.12;60.95
77161;BME280;66135;0.000;0.000;2023-05-20T12:04:04;101907.63;;;19.11;61.14
77161;BME280;66135;0.000;0.000;2023-05-20T12:06:30;101906.78;;;19.11;61.03
77161;BME280;66135;0.000;0.000;2023-05-20T12:08:59;101906.78;;;19.11;61.21
77161;BME280;66135;0.000;0.000;2023-05-20T12:11:30;101914.78;;;19.12;61.22
77161;BME280;66135;0.000;0.000;2023-05-20T12:13:56;101893.88;;;19.13;61.00
77161;BME280;66135;0.000;0.000;2023-05-20T12:16:21;101896.59;;;19.13;61.21
77161;BME280;66135;0.000;0.000;2023-05-20T12:18:47;101894.72;;;19.13;61.25
77161;BME280;66135;0.000;0.000;2023-05-20T12:21:12;101893.03;;;19.12;61.21
77161;BME280;66135;0.000;0.000;2023-05-20T12:23:37;101891.16;;;19.13;61.25
77161;BME280;66135;0.000;0.000;2023-05-20T12:26:03;101892.19;;;19.12;61.27
77161;BME280;66135;0.000;0.000;2023-05-20T12:28:29;101889.47;;;19.12;61.39
77161;BME280;66135;0.000;0.000;2023-05-20T12:30:56;101895.59;;;19.14;61.38
77161;BME280;66135;0.000;0.000;2023-05-20T12:33:21;101888.31;;;19.14;61.39
77161;BME280;66135;0.000;0.000;2023-05-20T12:35:46;101895.44;;;19.15;61.61
77161;BME280;66135;0.000;0.000;2023-05-20T12:38:12;101883.72;;;19.15;61.61
77161;BME280;66135;0.000;0.000;2023-05-20T12:40:37;101897.28;;;19.15;61.60
77161;BME280;66135;0.000;0.000;2023-05-20T12:43:04;101892.72;;;19.15;61.77
77161;BME280;66135;0.000;0.000;2023-05-20T12:45:29;101890.88;;;19.16;61.42
77161;BME280;66135;0.000;0.000;2023-05-20T12:47:58;101884.72;;;19.14;61.57
77161;BME280;66135;0.000;0.000;2023-05-20T12:50:24;101882.88;;;19.14;61.76
77161;BME280;66135;0.000;0.000;2023-05-20T12:52:50;101891.84;;;19.15;61.63
77161;BME280;66135;0.000;0.000;2023-05-20T12:55:15;101878.28;;;19.15;61.82
77161;BME280;66135;0.000;0.000;2023-05-20T12:57:42;101889.16;;;19.15;61.58
77161;BME280;66135;0.000;0.000;2023-05-20T13:00:09;101891.84;;;19.15;61.78
77161;BME280;66135;0.000;0.000;2023-05-20T13:02:38;101885.59;;;19.14;61.65
77161;BME280;66135;0.000;0.000;2023-05-20T13:05:04;101882.03;;;19.14;61.90